Time;durP1;ratioP1;P1;durP2;ratioP2;P2;SDS_P1;SDS_P2;PMS_P1;PMS_P2;Temp;Humidity;BMP_temperature;BMP_pressure;BME280_temperature;BME280_humidity;BME280_pressure;Samples;Min_cycle;Max_cycle;Signal;HPM_P1;HPM_P2
2023/01/07 00:00:11;;;;;;;0.20;0.10;;;7.00;99.90;;;;;;21136705;28;20490;-71
2023/01/07 00:10:16;;;;;;;0.20;0.10;;;6.80;99.90;;;;;;21137563;28;20418;-71
2023/01/07 00:20:20;;;;;;;0.20;0.10;;;6.90;99.90;;;;;;21136876;28;20425;-71
2023/01/07 00:30:25;;;;;;;0.20;0.10;;;7.00;99.90;;;;;;21154129;28;20485;-71
2023/01/07 00:40:49;;;;;;;0.20;0.10;;;6.80;99.90;;;;;;21153563;28;20850;-72
2023/01/07 00:50:56;;;;;;;0.20;0.00;;;6.80;99.90;;;;;;21132947;28;20426;-72
2023/01/07 01:01:01;;;;;;;0.20;0.10;;;6.80;99.90;;;;;;21132260;28;20471;-72
2023/01/07 01:11:08;;;;;;;0.20;0.10;;;6.70;99.90;;;;;;21120064;28;20442;-72
2023/01/07 01:21:13;;;;;;;0.20;0.10;;;6.70;99.90;;;;;;21147524;28;20785;-72
2023/01/07 01:31:18;;;;;;;0.20;0.10;;;6.80;99.90;;;;;;21139488;27;20446;-72
2023/01/07 01:41:22;;;;;;;0.20;0.10;;;7.00;99.90;;;;;;21125939;28;20467;-72
2023/01/07 01:51:33;;;;;;;0.20;0.10;;;6.90;99.90;;;;;;21126910;28;20391;-69
2023/01/07 02:01:37;;;;;;;0.20;0.10;;;6.60;99.90;;;;;;21142704;28;20438;-70
2023/01/07 02:11:51;;;;;;;0.20;0.10;;;6.80;99.90;;;;;;21124850;28;20411;-70
2023/01/07 02:22:04;;;;;;;0.20;0.10;;;6.90;99.90;;;;;;21137806;28;20456;-70
2023/01/07 02:32:25;;;;;;;0.20;0.10;;;8.30;99.90;;;;;;21108736;28;20420;-70
2023/01/07 02:42:38;;;;;;;0.20;0.10;;;8.80;99.90;;;;;;21143973;28;20528;-72
2023/01/07 02:52:43;;;;;;;0.20;0.10;;;9.70;99.90;;;;;;21126037;28;20453;-70
2023/01/07 03:03:12;;;;;;;0.20;0.10;;;9.90;99.90;;;;;;21144288;28;20715;-69
2023/01/07 03:13:21;;;;;;;0.20;0.10;;;10.20;99.90;;;;;;21142959;28;20402;-68
2023/01/07 03:23:27;;;;;;;0.20;0.10;;;10.40;99.90;;;;;;21125204;28;20402;-69
2023/01/07 03:33:39;;;;;;;0.20;0.10;;;10.50;99.90;;;;;;21147202;28;20410;-69
2023/01/07 03:43:43;;;;;;;0.20;0.10;;;10.60;99.90;;;;;;21157914;28;20404;-69
2023/01/07 03:53:48;;;;;;;0.20;0.10;;;10.30;99.90;;;;;;21156192;28;20395;-69
2023/01/07 04:03:52;;;;;;;0.20;0.10;;;10.40;99.90;;;;;;21156674;28;20398;-70
2023/01/07 04:13:59;;;;;;;0.20;0.10;;;10.30;99.90;;;;;;21137793;28;20758;-71
2023/01/07 04:24:22;;;;;;;0.20;0.10;;;10.00;99.90;;;;;;21136399;28;20487;-72
2023/01/07 04:34:27;;;;;;;0.20;0.00;;;9.70;99.90;;;;;;21134927;28;20832;-72
2023/01/07 04:44:31;;;;;;;0.20;0.10;;;9.60;99.90;;;;;;21157859;27;20731;-70
2023/01/07 04:54:36;;;;;;;0.20;0.10;;;9.50;99.90;;;;;;21157264;27;20398;-72
2023/01/07 05:04:39;;;;;;;0.20;0.00;;;9.50;99.90;;;;;;21130565;28;20430;-71
2023/01/07 05:14:45;;;;;;;0.20;0.10;;;10.00;99.90;;;;;;21125908;28;20434;-71
2023/01/07 05:25:07;;;;;;;0.20;0.10;;;10.10;99.90;;;;;;21140548;28;20479;-71
2023/01/07 05:35:12;;;;;;;0.20;0.10;;;10.20;99.90;;;;;;21146158;28;20406;-71
2023/01/07 05:45:16;;;;;;;0.20;0.10;;;10.40;99.90;;;;;;21148215;28;20792;-72
2023/01/07 05:55:21;;;;;;;0.20;0.10;;;10.30;99.90;;;;;;21146680;28;20415;-71
2023/01/07 06:05:25;;;;;;;0.20;0.10;;;10.20;99.90;;;;;;21146069;28;20862;-72
2023/01/07 06:15:31;;;;;;;0.20;0.10;;;10.00;99.90;;;;;;21127682;28;20402;-72
2023/01/07 06:25:35;;;;;;;0.20;0.10;;;10.20;99.90;;;;;;21127320;28;20415;-71
2023/01/07 06:35:40;;;;;;;0.20;0.10;;;10.50;99.90;;;;;;21143675;28;20414;-70
2023/01/07 06:45:44;;;;;;;0.20;0.10;;;10.50;99.90;;;;;;21125875;28;20386;-72
2023/01/07 06:55:50;;;;;;;0.20;0.10;;;10.80;99.90;;;;;;21142498;28;20480;-73
2023/01/07 07:05:54;;;;;;;0.20;0.10;;;11.00;99.90;;;;;;21143774;28;20405;-74
2023/01/07 07:15:59;;;;;;;0.20;0.10;;;10.90;99.90;;;;;;21159728;28;20523;-71
2023/01/07 07:26:20;;;;;;;0.20;0.10;;;10.70;99.90;;;;;;21123389;28;20410;-70
2023/01/07 07:36:25;;;;;;;0.20;0.10;;;10.50;99.90;;;;;;21157226;28;20751;-71
2023/01/07 07:46:47;;;;;;;0.20;0.10;;;10.60;99.90;;;;;;21157044;28;20529;-71
2023/01/07 07:56:53;;;;;;;0.20;0.10;;;10.90;99.90;;;;;;21155397;28;20402;-70
2023/01/07 08:06:56;;;;;;;0.20;0.10;;;11.00;99.90;;;;;;21104454;28;20405;-71
2023/01/07 08:17:02;;;;;;;0.20;0.10;;;11.20;99.90;;;;;;21069915;28;20416;-71
2023/01/07 08:27:06;;;;;;;0.20;0.10;;;11.40;99.90;;;;;;21050667;28;20408;-70
2023/01/07 08:47:32;;;;;;;0.20;0.10;;;11.90;99.90;;;;;;21045880;28;20495;-72
2023/01/07 08:57:38;;;;;;;0.20;0.10;;;12.00;99.90;;;;;;21065830;28;20408;-72
2023/01/07 09:07:42;;;;;;;0.20;0.10;;;12.10;99.90;;;;;;21064067;28;20400;-69
2023/01/07 09:28:09;;;;;;;0.20;0.10;;;11.90;99.90;;;;;;21044477;28;20404;-70
2023/01/07 09:38:14;;;;;;;0.20;0.10;;;12.30;99.90;;;;;;21061639;28;20412;-71
2023/01/07 09:48:24;;;;;;;0.20;0.10;;;12.90;99.90;;;;;;21132868;28;20889;-70
2023/01/07 09:58:30;;;;;;;0.20;0.10;;;13.90;99.90;;;;;;21146009;27;20818;-70
2023/01/07 10:08:43;;;;;;;0.20;0.10;;;13.30;99.90;;;;;;21141997;27;20403;-71
2023/01/07 10:18:58;;;;;;;0.20;0.10;;;13.20;99.90;;;;;;21120965;27;20454;-74
2023/01/07 10:29:06;;;;;;;0.20;0.10;;;13.50;99.90;;;;;;21211135;27;20463;-73
2023/01/07 10:39:19;;;;;;;0.20;0.10;;;13.70;99.90;;;;;;21209604;27;20532;-71
2023/01/07 10:49:38;;;;;;;0.20;0.10;;;14.40;99.90;;;;;;21232293;27;20424;-72
2023/01/07 10:59:49;;;;;;;0.20;0.10;;;14.50;99.90;;;;;;21236400;27;20907;-71
2023/01/07 11:09:53;;;;;;;0.20;0.10;;;14.60;99.90;;;;;;21232208;27;20807;-72
2023/01/07 11:19:59;;;;;;;0.20;0.00;;;14.70;99.90;;;;;;21128049;28;20499;-73
2023/01/07 11:30:06;;;;;;;0.20;0.10;;;15.70;99.90;;;;;;21160899;27;20397;-70
2023/01/07 11:40:24;;;;;;;0.20;0.00;;;16.20;99.90;;;;;;21144749;27;20436;-67
2023/01/07 11:50:33;;;;;;;0.20;0.10;;;16.90;99.90;;;;;;21149751;28;20406;-71
2023/01/07 12:00:39;;;;;;;0.20;0.10;;;16.90;99.90;;;;;;21137446;28;20497;-70
2023/01/07 12:10:43;;;;;;;0.20;0.10;;;16.90;99.90;;;;;;21152951;28;20946;-69
2023/01/07 12:21:11;;;;;;;0.20;0.00;;;17.90;99.90;;;;;;21153432;28;20411;-69
2023/01/07 12:31:27;;;;;;;0.20;0.10;;;17.40;99.90;;;;;;21150223;28;20432;-68
2023/01/07 12:41:55;;;;;;;0.20;0.10;;;17.80;99.90;;;;;;21104261;28;20857;-70
2023/01/07 12:52:04;;;;;;;0.20;0.10;;;17.30;99.90;;;;;;21049409;28;20737;-70
2023/01/07 13:02:19;;;;;;;0.20;0.10;;;17.00;99.90;;;;;;21066411;28;20579;-70
2023/01/07 13:12:46;;;;;;;0.20;0.10;;;17.30;99.90;;;;;;21030288;28;20502;-68
2023/01/07 13:22:56;;;;;;;0.20;0.10;;;16.70;99.90;;;;;;21063601;28;20815;-69
2023/01/07 13:33:10;;;;;;;0.20;0.10;;;16.90;99.90;;;;;;21065302;28;20388;-72
2023/01/07 13:43:35;;;;;;;0.20;0.10;;;17.30;99.90;;;;;;21045464;28;21021;-70
2023/01/07 13:53:46;;;;;;;0.20;0.00;;;17.80;99.90;;;;;;21043088;28;20514;-71
2023/01/07 14:03:53;;;;;;;0.20;0.10;;;18.20;99.90;;;;;;21097428;28;20437;-69
2023/01/07 14:14:06;;;;;;;0.20;0.10;;;17.90;99.90;;;;;;21121924;28;20406;-70
2023/01/07 14:24:30;;;;;;;0.20;0.10;;;18.70;99.90;;;;;;21142875;28;20536;-69
2023/01/07 14:34:34;;;;;;;0.20;0.00;;;19.00;99.90;;;;;;21139479;28;20402;-69
2023/01/07 14:44:40;;;;;;;0.20;0.10;;;19.00;99.90;;;;;;21122150;28;20406;-69
2023/01/07 14:55:27;;;;;;;0.20;0.10;;;17.70;99.90;;;;;;21137450;28;20425;-70
2023/01/07 15:06:11;;;;;;;0.20;0.10;;;16.30;99.90;;;;;;21115886;28;20421;-69
2023/01/07 15:16:19;;;;;;;0.20;0.10;;;16.40;99.90;;;;;;21088612;28;20804;-70
2023/01/07 15:26:32;;;;;;;0.20;0.10;;;17.00;99.90;;;;;;21103867;28;20398;-70
2023/01/07 15:36:40;;;;;;;0.20;0.10;;;16.70;99.90;;;;;;21136340;28;20422;-70
2023/01/07 15:46:45;;;;;;;0.20;0.00;;;17.30;99.90;;;;;;21121370;28;20396;-71
2023/01/07 15:56:52;;;;;;;0.20;0.10;;;16.20;99.90;;;;;;21064413;28;20863;-69
2023/01/07 16:07:00;;;;;;;0.20;0.10;;;15.60;99.90;;;;;;21065273;28;20894;-70
2023/01/07 16:17:14;;;;;;;0.20;0.10;;;14.70;99.90;;;;;;21065296;28;20415;-69
2023/01/07 16:27:30;;;;;;;0.20;0.10;;;14.00;99.90;;;;;;21064378;28;20483;-70
2023/01/07 16:37:38;;;;;;;0.20;0.10;;;13.70;99.90;;;;;;21065117;28;20400;-69
2023/01/07 16:47:58;;;;;;;0.20;0.03;;;13.60;99.90;;;;;;21044406;28;20385;-69
2023/01/07 16:58:02;;;;;;;0.20;0.10;;;13.60;99.90;;;;;;21092610;27;20410;-69
2023/01/07 17:08:18;;;;;;;0.20;0.10;;;13.30;99.90;;;;;;21137811;27;20502;-71
2023/01/07 17:18:28;;;;;;;0.20;0.10;;;13.00;99.90;;;;;;21114738;27;20416;-68
2023/01/07 17:28:36;;;;;;;0.20;0.10;;;12.80;99.90;;;;;;21119932;28;20473;-71
2023/01/07 17:38:39;;;;;;;0.20;0.10;;;12.70;99.90;;;;;;21123617;27;20418;-71
2023/01/07 17:48:45;;;;;;;0.20;0.10;;;12.60;99.90;;;;;;21155582;27;20402;-70
2023/01/07 17:58:49;;;;;;;0.20;0.10;;;12.40;99.90;;;;;;21140570;28;20421;-68
2023/01/07 18:08:55;;;;;;;0.20;0.10;;;12.50;99.90;;;;;;21121016;28;20390;-71
2023/01/07 18:19:00;;;;;;;0.20;0.10;;;12.20;99.90;;;;;;21139058;28;20406;-73
2023/01/07 18:29:05;;;;;;;0.20;0.10;;;12.10;99.90;;;;;;21137155;28;20413;-69
2023/01/07 18:39:14;;;;;;;0.20;0.10;;;11.90;99.90;;;;;;21116342;28;20395;-69
2023/01/07 18:49:23;;;;;;;0.20;0.10;;;11.80;99.90;;;;;;21116226;28;20415;-70
2023/01/07 18:59:28;;;;;;;0.20;0.10;;;11.80;99.90;;;;;;21113342;28;20567;-70
2023/01/07 19:09:33;;;;;;;0.20;0.10;;;11.50;99.90;;;;;;21126277;28;20888;-72
2023/01/07 19:19:37;;;;;;;0.20;0.00;;;11.70;99.90;;;;;;21149210;28;20554;-69
2023/01/07 19:29:52;;;;;;;0.20;0.10;;;11.80;99.90;;;;;;21130387;28;20399;-70
2023/01/07 19:39:56;;;;;;;0.20;0.10;;;12.00;99.90;;;;;;21129228;28;20410;-70
2023/01/07 19:50:01;;;;;;;0.20;0.10;;;11.70;99.90;;;;;;21130063;28;20398;-70
2023/01/07 20:00:06;;;;;;;0.20;0.10;;;11.30;99.90;;;;;;21146540;28;20410;-70
2023/01/07 20:10:12;;;;;;;0.20;0.10;;;11.10;99.90;;;;;;21146930;28;20406;-70
2023/01/07 20:20:15;;;;;;;0.20;0.00;;;11.10;99.90;;;;;;21138870;28;20509;-77
2023/01/07 20:30:20;;;;;;;0.20;0.10;;;11.10;99.90;;;;;;21129177;28;20468;-71
2023/01/07 20:40:25;;;;;;;0.20;0.10;;;11.10;99.90;;;;;;21129767;28;20403;-70
2023/01/07 20:50:30;;;;;;;0.20;0.10;;;11.10;99.90;;;;;;21141590;27;20408;-70
2023/01/07 21:00:35;;;;;;;3.92;3.72;;;11.00;99.90;;;;;;21164010;27;20509;-72
2023/01/07 21:10:42;;;;;;;0.20;0.10;;;11.00;99.90;;;;;;21163470;27;20447;-69
2023/01/07 21:20:46;;;;;;;0.20;0.10;;;11.20;99.90;;;;;;21204718;27;20408;-70
2023/01/07 21:30:51;;;;;;;0.20;0.10;;;12.10;99.90;;;;;;21214185;27;20453;-68
2023/01/07 21:40:56;;;;;;;0.20;0.10;;;12.20;99.90;;;;;;21214063;27;20409;-70
2023/01/07 21:51:03;;;;;;;0.20;0.10;;;12.10;99.90;;;;;;21196206;27;20402;-68
2023/01/07 22:01:07;;;;;;;0.20;0.10;;;12.50;99.90;;;;;;21146969;28;20758;-69
2023/01/07 22:11:14;;;;;;;0.20;0.10;;;11.90;99.90;;;;;;21113733;28;20602;-68
2023/01/07 22:21:18;;;;;;;0.20;0.10;;;11.40;99.90;;;;;;21134365;27;20395;-69
2023/01/07 22:31:25;;;;;;;0.20;0.10;;;11.60;99.90;;;;;;21171627;27;20401;-69
2023/01/07 22:41:31;;;;;;;0.20;0.10;;;11.50;99.90;;;;;;21137373;27;20420;-69
2023/01/07 22:51:43;;;;;;;0.20;0.10;;;11.70;99.90;;;;;;21123456;28;20857;-70
2023/01/07 23:01:47;;;;;;;0.20;0.10;;;11.80;99.90;;;;;;21066101;28;20498;-70
2023/01/07 23:11:58;;;;;;;0.20;0.10;;;11.70;99.90;;;;;;21036410;28;20410;-70
2023/01/07 23:22:01;;;;;;;0.20;0.10;;;11.80;99.90;;;;;;21099004;28;20901;-69
2023/01/07 23:32:11;;;;;;;0.20;0.10;;;12.00;99.90;;;;;;21119541;28;20442;-69
2023/01/07 23:42:14;;;;;;;0.20;0.10;;;12.80;99.90;;;;;;21119454;28;20411;-69
2023/01/07 23:52:20;;;;;;;0.20;0.10;;;12.80;99.90;;;;;;21192656;27;20400;-68
